Página principal
METAR-TAF:

METAR-TAF

Aeroportos :

Saint-Louis, Senegal

latitude: 16-03N, longitude: 016-27W, altura: 4 m

Observação actual do tempo

O boletim foi feito há 3 horas e 11 minutos, às 03:00 UTC
Vento 4 kt de oeste
Temperatura 27°C
Humidade 84%
Pressão 1009 hPa
Visibilidade 10 km ou mais
Nuvens dispersasa uma altura de 1000 ft

METAR: GOSS 120300Z 28004KT 9999 SCT010 27/24 Q1009

Hora: 06:11 (06:11 UTC)

Previsão

O boletim foi feito há 41 minutos, às 05:30 UTC
Previsão válida de 12 às 06 UTC a 13 às 06 UTC
Vento 8 kt de oeste
Visibilidade 10 km ou mais
Nuvens dispersasa uma altura de 1300 ft

TAF: GOSS 120530Z 1206/1306 28008KT 9999 SCT013

Observações e previsões do tempo de mais de 4000 aeroportos (mensagens METAR e TAF).

As estações disponíveis são os pontos amarelos e vermelhos sobre o mapa.

Mova o rato sobre o mapa para ver o nome da estação.

Depois clique no ponto para visualizar as observações e previsões meteorológicas.

Para alterar o mapa : clique nos botões verdes com uma cruz preta para aumentar o zoom; no botão verde com uma pitada de zoom; ou nas setas verdes para mapas adjacentes.


METAR-TAF: